createdAt,value
2019-05-19T00:02:40.679Z,36.47
2019-05-19T00:05:23.910Z,33.40
2019-05-19T00:08:09.328Z,32.30
2019-05-19T00:10:55.603Z,31.97
2019-05-19T00:13:40.063Z,30.40
2019-05-19T00:16:22.929Z,36.83
2019-05-19T00:19:25.814Z,33.20
2019-05-19T00:21:59.798Z,40.00
2019-05-19T00:24:45.598Z,33.50
2019-05-19T00:27:33.511Z,34.57
2019-05-19T00:30:21.549Z,31.97
2019-05-19T00:33:24.331Z,35.68
2019-05-19T00:36:03.696Z,36.97
2019-05-19T00:38:49.440Z,35.73
2019-05-19T00:41:39.147Z,39.47
2019-05-19T00:44:28.053Z,34.70
2019-05-19T00:47:25.392Z,38.27
2019-05-19T00:50:13.087Z,37.63
2019-05-19T00:53:06.503Z,47.80
2019-05-19T00:56:01.641Z,34.77
2019-05-19T00:58:46.587Z,42.80
2019-05-19T01:01:30.422Z,46.87
2019-05-19T01:04:12.681Z,40.73
2019-05-19T01:06:58.372Z,42.78
2019-05-19T01:09:48.696Z,37.43
2019-05-19T01:12:31.848Z,37.53
2019-05-19T01:15:23.626Z,48.77
2019-05-19T01:18:12.198Z,38.30
2019-05-19T01:20:53.913Z,62.17
2019-05-19T01:23:48.895Z,68.77
2019-05-19T01:26:38.089Z,69.97
2019-05-19T01:29:27.530Z,55.57
2019-05-19T01:32:09.298Z,53.77
2019-05-19T01:34:49.605Z,56.23
2019-05-19T01:37:32.164Z,62.90
2019-05-19T01:40:12.647Z,69.37
2019-05-19T01:42:57.736Z,72.57
2019-05-19T01:45:45.285Z,51.60
2019-05-19T01:48:30.880Z,63.83
2019-05-19T01:51:15.973Z,50.60
2019-05-19T01:54:01.997Z,58.53
2019-05-19T01:56:46.431Z,69.77
2019-05-19T01:59:35.348Z,65.73
2019-05-19T02:02:15.496Z,69.17
2019-05-19T02:04:57.619Z,59.17
2019-05-19T02:07:39.257Z,64.27
2019-05-19T02:10:20.233Z,74.47
2019-05-19T02:13:05.251Z,66.07
2019-05-19T02:15:45.130Z,63.27
2019-05-19T02:18:27.751Z,75.17
2019-05-19T02:21:09.321Z,115.63
2019-05-19T02:23:56.514Z,73.03
2019-05-19T02:26:40.034Z,85.70
2019-05-19T02:29:22.244Z,72.37
2019-05-19T02:32:09.065Z,66.60
2019-05-19T02:34:51.821Z,69.90
2019-05-19T02:37:35.676Z,66.10
2019-05-19T02:40:20.065Z,67.17
2019-05-19T02:43:07.252Z,62.60
2019-05-19T02:45:57.274Z,64.73
2019-05-19T02:48:37.730Z,63.37
2019-05-19T02:51:23.665Z,70.20
2019-05-19T02:54:06.338Z,63.70
2019-05-19T02:56:51.665Z,50.07
2019-05-19T02:59:39.603Z,54.03
2019-05-19T03:02:26.563Z,53.80
2019-05-19T03:05:06.994Z,61.93
2019-05-19T03:07:51.727Z,37.63
2019-05-19T03:10:35.930Z,49.90
2019-05-19T03:13:35.804Z,48.95
2019-05-19T03:16:31.282Z,54.40
2019-05-19T03:19:20.729Z,42.07
2019-05-19T03:22:05.839Z,37.40
2019-05-19T03:25:06.045Z,44.77
2019-05-19T03:27:51.747Z,59.00
2019-05-19T03:30:51.202Z,49.73
2019-05-19T03:33:38.507Z,49.93
2019-05-19T03:36:24.765Z,44.03
2019-05-19T03:39:15.525Z,49.85
2019-05-19T03:42:00.020Z,43.07
2019-05-19T03:45:11.971Z,205.00
2019-05-19T03:48:41.433Z,64.43
2019-05-19T03:51:30.777Z,48.20
2019-05-19T03:54:04.786Z,62.10
2019-05-19T03:56:51.780Z,52.50
2019-05-19T03:59:36.266Z,46.13
2019-05-19T04:02:21.915Z,45.03
2019-05-19T04:05:03.787Z,41.60
2019-05-19T04:07:50.429Z,50.30
2019-05-19T04:10:41.069Z,44.03
2019-05-19T04:13:25.495Z,46.33
2019-05-19T04:16:10.209Z,104.60
2019-05-19T04:19:01.737Z,52.37
2019-05-19T04:21:49.329Z,44.37
2019-05-19T04:24:34.675Z,38.17
2019-05-19T04:27:16.686Z,35.57
2019-05-19T04:29:58.514Z,43.63
2019-05-19T04:32:42.766Z,40.67
2019-05-19T04:35:23.779Z,78.03
2019-05-19T04:38:13.785Z,41.90
2019-05-19T04:40:56.186Z,57.53
2019-05-19T04:43:40.903Z,40.97
2019-05-19T04:46:24.918Z,43.65
2019-05-19T04:49:31.775Z,50.23
2019-05-19T04:52:26.904Z,110.93
2019-05-19T04:55:15.797Z,53.47
2019-05-19T04:58:01.148Z,46.57
2019-05-19T05:00:43.456Z,30.83
2019-05-19T05:03:30.999Z,66.50
2019-05-19T05:06:23.693Z,32.47
2019-05-19T05:09:13.020Z,54.73
2019-05-19T05:11:55.718Z,93.83
2019-05-19T05:14:47.150Z,45.23
2019-05-19T05:17:41.669Z,50.92
2019-05-19T05:20:27.852Z,42.03
2019-05-19T05:23:17.041Z,40.37
2019-05-19T05:26:04.432Z,30.57
2019-05-19T05:28:48.001Z,39.93
2019-05-19T05:31:32.170Z,28.73
2019-05-19T05:34:15.260Z,44.60
2019-05-19T05:37:15.695Z,47.90
2019-05-19T05:40:02.164Z,34.27
2019-05-19T05:42:45.365Z,23.50
2019-05-19T05:45:27.635Z,18.77
2019-05-19T05:48:12.528Z,22.77
2019-05-19T05:51:00.055Z,26.68
2019-05-19T05:53:43.289Z,25.53
2019-05-19T05:56:29.127Z,15.10
2019-05-19T05:59:14.551Z,25.50
2019-05-19T06:02:00.971Z,25.13
2019-05-19T06:04:52.319Z,14.70
2019-05-19T06:07:35.046Z,24.70
2019-05-19T06:10:18.918Z,20.63
2019-05-19T06:13:03.325Z,19.42
2019-05-19T06:15:50.487Z,21.20
2019-05-19T06:18:32.127Z,21.80
2019-05-19T06:21:19.164Z,19.35
2019-05-19T06:24:00.336Z,20.00
2019-05-19T06:26:45.656Z,23.00
2019-05-19T06:29:30.869Z,18.87
2019-05-19T06:32:33.350Z,22.60
2019-05-19T06:35:17.332Z,24.90
2019-05-19T06:38:06.351Z,31.37
2019-05-19T06:40:53.804Z,29.00
2019-05-19T06:43:41.171Z,35.10
2019-05-19T06:46:25.662Z,35.27
2019-05-19T06:49:15.631Z,33.50
2019-05-19T06:52:09.025Z,49.03
2019-05-19T06:55:12.108Z,54.17
2019-05-19T06:57:58.077Z,80.63
2019-05-19T07:00:44.343Z,63.10
2019-05-19T07:03:44.269Z,38.80
2019-05-19T07:06:34.743Z,51.67
2019-05-19T07:09:17.468Z,43.20
2019-05-19T07:12:01.749Z,41.87
2019-05-19T07:14:57.193Z,45.50
2019-05-19T07:17:40.491Z,48.33
2019-05-19T07:20:27.084Z,69.43
2019-05-19T07:23:11.465Z,43.40
2019-05-19T07:25:53.436Z,49.60
2019-05-19T07:28:40.289Z,40.23
2019-05-19T07:31:39.361Z,38.63
2019-05-19T07:34:27.087Z,43.10
2019-05-19T07:37:13.651Z,63.00
2019-05-19T07:39:59.198Z,41.23
2019-05-19T07:42:47.462Z,172.47
2019-05-19T07:45:30.646Z,268.80
2019-05-19T07:48:26.149Z,152.57
2019-05-19T07:51:12.914Z,121.57
2019-05-19T07:53:55.437Z,90.55
2019-05-19T07:56:57.377Z,57.60
2019-05-19T07:59:46.174Z,71.57
2019-05-19T08:02:25.861Z,100.17
2019-05-19T08:05:10.756Z,184.03
2019-05-19T08:07:54.344Z,272.67
2019-05-19T08:10:41.988Z,223.50
2019-05-19T08:13:30.801Z,101.37
2019-05-19T08:16:16.518Z,253.53
2019-05-19T08:19:03.711Z,159.07
2019-05-19T08:21:53.487Z,81.40
2019-05-19T08:24:33.255Z,427.33
2019-05-19T08:27:14.700Z,103.43
2019-05-19T08:29:57.005Z,61.73
2019-05-19T08:32:39.487Z,46.27
2019-05-19T08:35:24.620Z,165.90
2019-05-19T08:38:15.132Z,822.57
2019-05-19T08:41:00.626Z,322.57
2019-05-19T08:43:45.348Z,288.50
2019-05-19T08:46:29.920Z,879.77
2019-05-19T08:49:13.033Z,914.53
2019-05-19T08:51:53.005Z,1027.67
2019-05-19T08:54:34.712Z,1024.53
2019-05-19T08:57:18.330Z,495.07
2019-05-19T09:00:06.945Z,970.13
2019-05-19T09:02:49.526Z,745.67
2019-05-19T09:05:36.467Z,447.27
2019-05-19T09:08:22.060Z,112.83
2019-05-19T09:11:01.136Z,71.90
2019-05-19T09:13:46.194Z,128.60
2019-05-19T09:16:39.293Z,61.27
2019-05-19T09:19:23.773Z,91.67
2019-05-19T09:22:14.005Z,79.57
2019-05-19T09:24:57.420Z,59.60
2019-05-19T09:27:40.099Z,58.80
2019-05-19T09:30:20.588Z,49.77
2019-05-19T09:33:05.830Z,44.73
2019-05-19T09:35:51.278Z,43.63
2019-05-19T09:38:31.705Z,41.60
2019-05-19T09:41:15.088Z,61.50
2019-05-19T09:44:00.336Z,48.47
2019-05-19T09:46:42.081Z,61.00
2019-05-19T09:49:41.009Z,50.00
2019-05-19T09:52:29.357Z,49.10
2019-05-19T09:55:11.795Z,68.37
2019-05-19T09:57:52.023Z,60.07
2019-05-19T10:00:33.101Z,49.90
2019-05-19T10:03:25.234Z,52.47
2019-05-19T10:06:09.043Z,45.03
2019-05-19T10:09:06.398Z,54.40
2019-05-19T10:12:12.844Z,48.20
2019-05-19T10:14:57.069Z,54.20
2019-05-19T10:17:36.424Z,53.77
2019-05-19T10:20:18.566Z,51.13
2019-05-19T10:22:59.289Z,53.50
2019-05-19T10:25:41.549Z,47.37
2019-05-19T10:28:23.168Z,49.23
2019-05-19T10:31:05.809Z,51.27
2019-05-19T10:33:47.755Z,62.47
2019-05-19T10:36:27.411Z,55.53
2019-05-19T10:39:15.247Z,62.80
2019-05-19T10:42:05.178Z,62.97
2019-05-19T10:44:48.021Z,44.87
2019-05-19T10:47:28.546Z,49.93
2019-05-19T10:50:11.167Z,61.67
2019-05-19T10:52:50.718Z,56.87
2019-05-19T10:55:37.476Z,60.55
2019-05-19T10:58:20.873Z,52.40
2019-05-19T11:01:03.217Z,46.43
2019-05-19T11:03:46.652Z,70.47
2019-05-19T11:06:32.741Z,67.63
2019-05-19T11:09:16.075Z,64.80
2019-05-19T11:11:59.487Z,59.60
2019-05-19T11:14:45.384Z,64.47
2019-05-19T11:17:28.500Z,92.77
2019-05-19T11:20:15.162Z,77.37
2019-05-19T11:22:59.400Z,74.93
2019-05-19T11:25:51.035Z,61.07
2019-05-19T11:28:27.486Z,58.57
2019-05-19T11:31:09.621Z,67.27
2019-05-19T11:33:53.963Z,79.15
2019-05-19T11:36:37.201Z,62.27
2019-05-19T11:39:17.397Z,66.97
2019-05-19T11:42:10.101Z,73.63
2019-05-19T11:44:54.506Z,58.07
2019-05-19T11:47:37.608Z,60.33
2019-05-19T11:50:18.606Z,73.07
2019-05-19T11:53:00.528Z,82.87
2019-05-19T11:55:48.322Z,73.77
2019-05-19T11:58:33.806Z,99.03
2019-05-19T12:01:21.724Z,90.73
2019-05-19T12:04:04.223Z,75.33
2019-05-19T12:06:49.736Z,68.63
2019-05-19T12:09:32.930Z,81.53
2019-05-19T12:12:18.025Z,77.27
2019-05-19T12:15:06.440Z,93.57
2019-05-19T12:17:51.583Z,88.33
2019-05-19T12:20:36.306Z,79.27
2019-05-19T12:23:21.590Z,69.33
2019-05-19T12:26:22.193Z,66.03
2019-05-19T12:28:55.130Z,61.97
2019-05-19T12:31:38.464Z,62.37
2019-05-19T12:34:28.888Z,66.27
2019-05-19T12:37:18.646Z,64.47
2019-05-19T12:40:22.839Z,67.73
2019-05-19T12:43:13.837Z,52.00
2019-05-19T12:46:14.819Z,56.03
2019-05-19T12:48:56.456Z,59.00
2019-05-19T12:51:44.676Z,52.87
2019-05-19T12:54:38.968Z,69.57
2019-05-19T12:57:21.427Z,65.60
2019-05-19T13:00:08.163Z,60.80
2019-05-19T13:02:54.922Z,48.43
2019-05-19T13:05:38.253Z,53.37
2019-05-19T13:08:25.721Z,53.52
2019-05-19T13:11:28.606Z,55.27
2019-05-19T13:14:25.894Z,65.10
2019-05-19T13:17:14.191Z,52.97
2019-05-19T13:19:58.131Z,60.70
2019-05-19T13:23:03.183Z,39.73
2019-05-19T13:28:45.733Z,40.30
2019-05-19T13:31:33.301Z,36.73
2019-05-19T13:34:16.943Z,39.63
2019-05-19T13:37:00.413Z,32.87
2019-05-19T13:39:45.545Z,39.63
2019-05-19T13:42:28.431Z,40.30
2019-05-19T13:45:18.428Z,48.27
2019-05-19T13:48:22.485Z,39.47
2019-05-19T13:51:12.183Z,41.03
2019-05-19T13:53:55.516Z,40.30
2019-05-19T13:56:40.283Z,38.33
2019-05-19T13:59:31.341Z,36.57
2019-05-19T14:02:22.333Z,41.23
2019-05-19T14:05:13.372Z,36.97
2019-05-19T14:08:02.457Z,30.47
2019-05-19T14:10:55.633Z,40.50
2019-05-19T14:13:41.706Z,41.58
2019-05-19T14:16:36.474Z,29.67
2019-05-19T14:19:27.885Z,38.63
2019-05-19T14:22:23.620Z,29.47
2019-05-19T14:25:11.567Z,31.83
2019-05-19T14:27:55.922Z,37.03
2019-05-19T14:30:44.721Z,34.57
2019-05-19T14:33:29.604Z,34.63
2019-05-19T14:36:19.335Z,45.70
2019-05-19T14:39:13.969Z,38.88
2019-05-19T14:42:01.198Z,32.23
2019-05-19T14:44:42.311Z,34.60
2019-05-19T14:47:39.370Z,38.98
2019-05-19T14:50:41.102Z,39.30
2019-05-19T14:53:38.797Z,33.37
2019-05-19T14:56:50.794Z,33.53
2019-05-19T14:59:42.153Z,38.47
2019-05-19T15:02:39.187Z,33.65
2019-05-19T15:05:27.204Z,214.13
2019-05-19T15:08:18.883Z,71.07
2019-05-19T15:10:57.935Z,35.33
2019-05-19T15:13:51.969Z,31.57
2019-05-19T15:16:51.743Z,43.95
2019-05-19T15:19:47.286Z,41.87
2019-05-19T15:22:45.066Z,39.10
2019-05-19T15:25:31.821Z,34.40
2019-05-19T15:28:17.712Z,47.87
2019-05-19T15:31:05.753Z,40.90
2019-05-19T15:33:49.560Z,544.90
2019-05-19T15:36:38.821Z,82.47
2019-05-19T15:39:31.284Z,40.17
2019-05-19T15:42:31.576Z,37.80
2019-05-19T15:45:17.316Z,43.20
2019-05-19T15:48:24.358Z,48.63
2019-05-19T15:51:11.048Z,35.83
2019-05-19T15:54:02.421Z,33.40
2019-05-19T15:56:44.569Z,36.33
2019-05-19T15:59:38.281Z,40.63
2019-05-19T16:02:24.825Z,34.33
2019-05-19T16:05:13.515Z,42.17
2019-05-19T16:08:00.053Z,43.73
2019-05-19T16:10:42.887Z,35.00
2019-05-19T16:13:22.851Z,40.20
2019-05-19T16:16:17.588Z,43.10
2019-05-19T16:19:04.637Z,35.33
2019-05-19T16:21:56.932Z,43.00
2019-05-19T16:24:40.096Z,31.97
2019-05-19T16:27:24.280Z,45.13
2019-05-19T16:30:07.793Z,37.50
2019-05-19T16:32:50.609Z,36.73
2019-05-19T16:35:33.948Z,36.33
2019-05-19T16:38:17.928Z,50.80
2019-05-19T16:40:59.101Z,40.97
2019-05-19T16:43:47.051Z,41.13
2019-05-19T16:46:28.979Z,43.80
2019-05-19T16:49:14.575Z,37.43
2019-05-19T16:52:00.434Z,44.20
2019-05-19T16:54:46.255Z,45.10
2019-05-19T16:57:33.061Z,36.83
2019-05-19T17:00:13.846Z,52.07
2019-05-19T17:02:56.132Z,53.67
2019-05-19T17:05:42.341Z,40.10
2019-05-19T17:08:26.680Z,30.70
2019-05-19T17:11:17.980Z,42.50
2019-05-19T17:13:52.542Z,38.50
2019-05-19T17:16:34.616Z,37.53
2019-05-19T17:19:16.019Z,37.63
2019-05-19T17:21:59.151Z,42.33
2019-05-19T17:24:43.147Z,42.00
2019-05-19T17:27:26.968Z,52.10
2019-05-19T17:30:12.024Z,52.20
2019-05-19T17:32:54.442Z,49.33
2019-05-19T17:35:35.097Z,47.20
2019-05-19T17:38:22.441Z,51.87
2019-05-19T17:41:08.098Z,52.20
2019-05-19T17:43:50.116Z,51.60
2019-05-19T17:46:30.440Z,51.13
2019-05-19T17:49:17.575Z,42.40
2019-05-19T17:52:01.493Z,44.50
2019-05-19T17:54:42.595Z,55.43
2019-05-19T17:57:26.845Z,41.93
2019-05-19T18:00:10.295Z,57.45
2019-05-19T18:02:50.935Z,40.73
2019-05-19T18:05:35.849Z,43.03
2019-05-19T18:08:14.843Z,50.00
2019-05-19T18:10:56.178Z,50.57
2019-05-19T18:13:39.007Z,58.77
2019-05-19T18:16:22.970Z,49.00
2019-05-19T18:19:07.113Z,54.30
2019-05-19T18:21:49.721Z,47.77
2019-05-19T18:24:31.956Z,55.27
2019-05-19T18:27:11.842Z,55.10
2019-05-19T18:29:55.143Z,46.93
2019-05-19T18:32:37.564Z,47.40
2019-05-19T18:35:18.513Z,34.93
2019-05-19T18:38:01.942Z,46.97
2019-05-19T18:40:41.917Z,46.87
2019-05-19T18:43:23.854Z,44.13
2019-05-19T18:46:05.708Z,47.37
2019-05-19T18:48:46.826Z,41.97
2019-05-19T18:51:29.094Z,48.70
2019-05-19T18:54:15.285Z,34.60
2019-05-19T18:56:58.528Z,35.30
2019-05-19T18:59:47.318Z,41.90
2019-05-19T19:02:37.687Z,36.33
2019-05-19T19:09:10.124Z,47.03
2019-05-19T19:11:55.804Z,40.60
2019-05-19T19:17:52.505Z,37.77
2019-05-19T19:20:34.108Z,45.67
2019-05-19T19:23:31.038Z,42.70
2019-05-19T19:26:17.389Z,44.43
2019-05-19T19:28:58.702Z,44.43
2019-05-19T19:31:59.682Z,42.23
2019-05-19T19:34:43.186Z,43.87
2019-05-19T19:37:55.188Z,39.23
2019-05-19T19:40:49.095Z,36.28
2019-05-19T19:46:55.434Z,32.60
2019-05-19T19:49:37.219Z,31.50
2019-05-19T19:52:19.837Z,33.97
2019-05-19T19:55:04.457Z,42.47
2019-05-19T19:57:48.840Z,33.00
2019-05-19T20:00:42.882Z,28.33
2019-05-19T20:03:25.055Z,43.90
2019-05-19T20:06:06.057Z,32.57
2019-05-19T20:08:47.763Z,39.33
2019-05-19T20:11:31.582Z,31.90
2019-05-19T20:14:15.683Z,33.93
2019-05-19T20:16:59.789Z,33.57
2019-05-19T20:19:40.604Z,35.80
2019-05-19T20:22:27.070Z,28.73
2019-05-19T20:25:07.735Z,33.50
2019-05-19T20:27:49.827Z,36.27
2019-05-19T20:30:36.038Z,42.53
2019-05-19T20:33:20.518Z,35.77
2019-05-19T20:36:03.555Z,34.77
2019-05-19T20:38:47.905Z,38.15
2019-05-19T20:41:31.423Z,33.63
2019-05-19T20:44:15.969Z,36.53
2019-05-19T20:46:57.856Z,33.80
2019-05-19T20:49:44.490Z,40.27
2019-05-19T20:52:27.413Z,32.53
2019-05-19T20:55:10.344Z,38.90
2019-05-19T20:57:53.123Z,36.67
2019-05-19T21:00:49.552Z,37.80
2019-05-19T21:03:21.660Z,35.80
2019-05-19T21:06:04.651Z,37.10
2019-05-19T21:08:49.179Z,40.90
2019-05-19T21:11:32.226Z,42.43
2019-05-19T21:14:14.907Z,33.70
2019-05-19T21:17:00.357Z,40.40
2019-05-19T21:19:42.587Z,38.60
2019-05-19T21:22:24.757Z,38.57
2019-05-19T21:25:08.090Z,36.97
2019-05-19T21:27:53.106Z,32.57
2019-05-19T21:30:36.585Z,33.50
2019-05-19T21:33:25.343Z,38.00
2019-05-19T21:36:08.333Z,46.00
2019-05-19T21:38:52.339Z,35.47
2019-05-19T21:41:33.329Z,40.40
2019-05-19T21:44:14.392Z,38.83
2019-05-19T21:46:57.556Z,42.93
2019-05-19T21:49:41.584Z,40.30
2019-05-19T21:52:24.870Z,36.45
2019-05-19T21:55:06.485Z,35.30
2019-05-19T21:57:48.455Z,39.00
2019-05-19T22:00:31.922Z,31.53
2019-05-19T22:03:14.755Z,32.33
2019-05-19T22:06:01.372Z,30.73
2019-05-19T22:08:39.825Z,35.43
2019-05-19T22:11:22.584Z,38.93
2019-05-19T22:14:03.748Z,33.83
2019-05-19T22:16:47.805Z,40.43
2019-05-19T22:19:32.651Z,43.27
2019-05-19T22:22:13.869Z,44.47
2019-05-19T22:24:58.090Z,39.53
2019-05-19T22:27:43.036Z,43.28
2019-05-19T22:30:23.088Z,42.27
2019-05-19T22:33:07.859Z,38.90
2019-05-19T22:35:52.009Z,34.77
2019-05-19T22:38:36.645Z,38.07
2019-05-19T22:41:18.655Z,33.43
2019-05-19T22:44:00.408Z,42.57
2019-05-19T22:46:46.135Z,41.47
2019-05-19T22:49:27.912Z,33.53
2019-05-19T22:52:12.430Z,37.17
2019-05-19T22:54:54.062Z,39.18
2019-05-19T22:57:35.695Z,27.67
2019-05-19T23:00:17.874Z,37.73
2019-05-19T23:02:59.600Z,35.00
2019-05-19T23:05:41.893Z,39.73
2019-05-19T23:08:24.554Z,44.73
2019-05-19T23:11:11.990Z,33.87
2019-05-19T23:13:52.111Z,40.10
2019-05-19T23:16:36.680Z,38.43
2019-05-19T23:19:20.776Z,43.67
2019-05-19T23:22:06.764Z,31.33
2019-05-19T23:24:53.509Z,45.17
2019-05-19T23:27:40.767Z,34.97
2019-05-19T23:30:24.260Z,46.50
2019-05-19T23:33:07.478Z,37.47
2019-05-19T23:35:55.507Z,42.23
2019-05-19T23:38:35.218Z,41.03
2019-05-19T23:41:21.387Z,43.20
2019-05-19T23:44:01.409Z,34.10
2019-05-19T23:46:46.006Z,44.07
2019-05-19T23:49:28.098Z,88.13
2019-05-19T23:52:10.827Z,62.87
2019-05-19T23:54:54.338Z,49.83
2019-05-19T23:57:38.148Z,39.70
